createdAt,value
2023-02-13T00:00:21.789Z,11.20
2023-02-13T00:02:48.554Z,11.50
2023-02-13T00:05:15.458Z,11.40
2023-02-13T00:07:42.196Z,11.40
2023-02-13T00:10:09.195Z,12.00
2023-02-13T00:12:35.935Z,11.50
2023-02-13T00:15:03.451Z,11.40
2023-02-13T00:17:30.388Z,11.50
2023-02-13T00:19:57.136Z,11.50
2023-02-13T00:22:24.334Z,11.50
2023-02-13T00:24:51.222Z,11.60
2023-02-13T00:27:18.187Z,11.60
2023-02-13T00:29:45.004Z,11.50
2023-02-13T00:32:11.903Z,11.40
2023-02-13T00:34:38.682Z,11.40
2023-02-13T00:37:05.508Z,11.40
2023-02-13T00:39:32.289Z,11.40
2023-02-13T00:41:59.039Z,11.40
2023-02-13T00:44:25.730Z,11.40
2023-02-13T00:46:53.824Z,11.80
2023-02-13T00:49:20.520Z,11.30
2023-02-13T00:51:48.000Z,11.30
2023-02-13T00:54:14.773Z,11.40
2023-02-13T00:56:43.780Z,11.40
2023-02-13T00:59:12.980Z,11.40
2023-02-13T01:01:39.740Z,11.40
2023-02-13T01:04:06.508Z,11.90
2023-02-13T01:06:33.266Z,11.30
2023-02-13T01:09:00.177Z,11.40
2023-02-13T01:11:28.072Z,12.00
2023-02-13T01:13:54.783Z,11.50
2023-02-13T01:16:21.584Z,11.50
2023-02-13T01:18:48.395Z,11.60
2023-02-13T01:21:18.084Z,11.50
2023-02-13T01:23:45.731Z,11.40
2023-02-13T01:26:18.487Z,11.30
2023-02-13T01:28:46.004Z,11.20
2023-02-13T01:31:13.110Z,11.30
2023-02-13T01:33:39.886Z,11.30
2023-02-13T01:36:12.259Z,11.30
2023-02-13T01:38:39.163Z,11.30
2023-02-13T01:41:06.457Z,11.30
2023-02-13T01:43:50.228Z,11.40
2023-02-13T01:46:22.206Z,11.30
2023-02-13T01:48:51.116Z,11.10
2023-02-13T01:51:23.390Z,11.20
2023-02-13T01:53:57.315Z,11.20
2023-02-13T01:56:33.710Z,11.20
2023-02-13T01:59:07.239Z,11.30
2023-02-13T02:01:34.519Z,12.20
2023-02-13T02:04:15.309Z,11.40
2023-02-13T02:06:45.921Z,11.40
2023-02-13T02:09:25.660Z,11.40
2023-02-13T02:12:33.089Z,11.30
2023-02-13T02:15:03.548Z,11.40
2023-02-13T02:17:32.869Z,11.30
2023-02-13T02:20:02.586Z,11.20
2023-02-13T02:22:50.442Z,11.20
2023-02-13T02:25:23.199Z,11.20
2023-02-13T02:28:16.549Z,11.30
2023-02-13T02:31:01.531Z,11.30
2023-02-13T02:33:44.630Z,11.30
2023-02-13T02:36:32.544Z,11.30
2023-02-13T02:39:30.623Z,11.30
2023-02-13T02:42:22.482Z,11.20
2023-02-13T02:45:07.628Z,11.20
2023-02-13T02:48:18.661Z,11.20
2023-02-13T02:50:59.439Z,11.20
2023-02-13T02:53:59.222Z,11.10
2023-02-13T02:56:40.190Z,11.00
2023-02-13T02:59:35.113Z,11.00
2023-02-13T03:02:21.739Z,10.90
2023-02-13T03:05:12.776Z,11.10
2023-02-13T03:07:39.481Z,11.10
2023-02-13T03:10:31.548Z,11.20
2023-02-13T03:13:22.093Z,11.30
2023-02-13T03:16:11.425Z,11.30
2023-02-13T03:19:04.387Z,11.20
2023-02-13T03:22:11.272Z,11.20
2023-02-13T03:24:58.783Z,11.30
2023-02-13T03:27:53.185Z,11.20
2023-02-13T03:30:40.301Z,11.10
2023-02-13T03:33:13.931Z,11.00
2023-02-13T03:36:08.585Z,11.10
2023-02-13T03:38:57.896Z,11.20
2023-02-13T03:41:36.295Z,11.20
2023-02-13T03:44:20.697Z,11.20
2023-02-13T03:46:50.123Z,11.20
2023-02-13T03:49:54.968Z,11.10
2023-02-13T03:52:33.841Z,11.10
2023-02-13T03:55:25.831Z,11.20
2023-02-13T03:58:14.983Z,11.10
2023-02-13T04:00:48.466Z,11.10
2023-02-13T04:03:22.752Z,11.40
2023-02-13T04:05:54.865Z,11.20
2023-02-13T04:08:21.699Z,11.20
2023-02-13T04:10:58.597Z,11.20
2023-02-13T04:13:34.767Z,12.00
2023-02-13T04:16:12.532Z,11.30
2023-02-13T04:18:39.840Z,11.20
2023-02-13T04:21:07.923Z,11.30
2023-02-13T04:23:36.811Z,11.20
2023-02-13T04:26:07.844Z,11.20
2023-02-13T04:28:34.786Z,11.20
2023-02-13T04:31:01.905Z,11.70
2023-02-13T04:33:28.994Z,11.20
2023-02-13T04:35:56.799Z,11.10
2023-02-13T04:38:23.618Z,11.20
2023-02-13T04:40:50.380Z,11.20
2023-02-13T04:43:17.098Z,11.30
2023-02-13T04:45:43.909Z,11.20
2023-02-13T04:48:10.700Z,11.30
2023-02-13T04:50:37.410Z,11.20
2023-02-13T04:53:04.150Z,11.20
2023-02-13T04:55:30.880Z,11.20
2023-02-13T04:57:58.144Z,11.20
2023-02-13T05:00:27.455Z,11.40
2023-02-13T05:02:54.580Z,11.30
2023-02-13T05:05:21.455Z,11.30
2023-02-13T05:07:48.359Z,11.30
2023-02-13T05:10:15.158Z,11.30
2023-02-13T05:12:42.001Z,11.30
2023-02-13T05:15:09.392Z,11.30
2023-02-13T05:17:36.214Z,11.40
2023-02-13T05:20:03.187Z,11.30
2023-02-13T05:22:48.432Z,12.10
2023-02-13T05:25:15.282Z,11.20
2023-02-13T05:27:42.054Z,11.30
2023-02-13T05:30:09.318Z,11.20
2023-02-13T05:32:36.080Z,11.30
2023-02-13T05:35:04.519Z,11.30
2023-02-13T05:37:32.203Z,11.30
2023-02-13T05:39:58.908Z,11.40
2023-02-13T05:42:25.765Z,11.30
2023-02-13T05:44:52.534Z,11.20
2023-02-13T05:47:19.339Z,11.30
2023-02-13T05:49:46.192Z,11.30
2023-02-13T05:52:12.949Z,11.30
2023-02-13T05:54:40.162Z,11.30
2023-02-13T05:57:06.883Z,11.30
2023-02-13T05:59:33.630Z,11.30
2023-02-13T06:02:00.460Z,11.30
2023-02-13T06:04:27.251Z,11.50
2023-02-13T06:06:54.047Z,11.20
2023-02-13T06:09:20.779Z,11.30
2023-02-13T06:11:47.938Z,11.20
2023-02-13T06:14:14.790Z,11.20
2023-02-13T06:16:41.779Z,11.30
2023-02-13T06:19:08.788Z,11.30
2023-02-13T06:21:37.961Z,11.40
2023-02-13T06:24:05.766Z,11.40
2023-02-13T06:26:32.618Z,11.40
2023-02-13T06:28:59.426Z,11.40
2023-02-13T06:31:26.390Z,11.30
2023-02-13T06:33:53.263Z,11.30
2023-02-13T06:36:19.976Z,11.30
2023-02-13T06:38:46.786Z,11.30
2023-02-13T06:41:13.541Z,11.30
2023-02-13T06:43:40.973Z,11.40
2023-02-13T06:46:08.457Z,11.30
2023-02-13T06:48:35.262Z,11.30
2023-02-13T06:51:02.258Z,11.30
2023-02-13T06:53:29.306Z,11.40
2023-02-13T06:55:56.835Z,11.30
2023-02-13T06:58:25.572Z,12.50
2023-02-13T07:00:53.090Z,11.30
2023-02-13T07:03:19.947Z,11.30
2023-02-13T07:05:46.900Z,11.30
2023-02-13T07:08:13.758Z,11.30
2023-02-13T07:10:41.674Z,11.30
2023-02-13T07:13:09.684Z,11.40
2023-02-13T07:15:37.037Z,11.40
2023-02-13T07:18:05.502Z,11.40
2023-02-13T07:20:32.938Z,11.40
2023-02-13T07:23:01.429Z,11.40
2023-02-13T07:25:28.816Z,11.30
2023-02-13T07:27:56.088Z,11.30
2023-02-13T07:30:23.030Z,11.30
2023-02-13T07:32:51.183Z,11.50
2023-02-13T07:35:17.879Z,11.50
2023-02-13T07:37:44.596Z,11.50
2023-02-13T07:40:11.728Z,11.50
2023-02-13T07:42:38.445Z,11.70
2023-02-13T07:45:06.200Z,11.60
2023-02-13T07:47:34.186Z,11.80
2023-02-13T07:50:02.033Z,12.60
2023-02-13T07:52:28.767Z,11.80
2023-02-13T07:54:55.593Z,11.70
2023-02-13T07:57:22.352Z,11.80
2023-02-13T07:59:49.170Z,11.80
2023-02-13T08:02:16.392Z,12.20
2023-02-13T08:04:46.619Z,12.70
2023-02-13T08:07:14.631Z,11.90
2023-02-13T08:09:59.823Z,12.00
2023-02-13T08:12:26.653Z,13.10
2023-02-13T08:14:53.975Z,12.10
2023-02-13T08:17:20.746Z,12.10
2023-02-13T08:19:47.506Z,12.30
2023-02-13T08:22:14.195Z,12.20
2023-02-13T08:24:41.093Z,12.20
2023-02-13T08:27:11.039Z,12.40
2023-02-13T08:29:37.747Z,12.40
2023-02-13T08:32:04.700Z,12.40
2023-02-13T08:34:31.567Z,12.60
2023-02-13T08:36:58.280Z,13.00
2023-02-13T08:39:25.063Z,12.60
2023-02-13T08:41:51.755Z,12.70
2023-02-13T08:44:18.491Z,12.50
2023-02-13T08:46:45.218Z,12.70
2023-02-13T08:49:11.953Z,12.70
2023-02-13T08:51:38.669Z,12.80
2023-02-13T08:54:05.477Z,12.80
2023-02-13T08:56:32.384Z,13.00
2023-02-13T08:58:59.193Z,13.00
2023-02-13T09:01:26.099Z,13.00
2023-02-13T09:03:53.141Z,13.20
2023-02-13T09:06:19.898Z,13.10
2023-02-13T09:08:46.716Z,13.20
2023-02-13T09:11:13.635Z,13.10
2023-02-13T09:13:40.371Z,13.20
2023-02-13T09:16:08.464Z,13.10
2023-02-13T09:18:35.425Z,13.10
2023-02-13T09:21:05.032Z,13.00
2023-02-13T09:23:38.111Z,14.00
2023-02-13T09:26:07.591Z,13.20
2023-02-13T09:28:35.611Z,13.30
2023-02-13T09:31:09.701Z,13.20
2023-02-13T09:33:37.364Z,13.20
2023-02-13T09:36:10.369Z,13.50
2023-02-13T09:38:37.174Z,13.30
2023-02-13T09:41:11.034Z,13.40
2023-02-13T09:43:44.710Z,13.40
2023-02-13T09:46:15.324Z,13.50
2023-02-13T09:48:45.435Z,13.60
2023-02-13T09:51:19.855Z,13.60
2023-02-13T09:53:57.679Z,13.60
2023-02-13T09:56:54.630Z,13.70
2023-02-13T09:59:39.366Z,13.70
2023-02-13T10:02:33.950Z,13.60
2023-02-13T10:05:19.641Z,13.80
2023-02-13T10:08:27.620Z,13.80
2023-02-13T10:11:21.723Z,14.00
2023-02-13T10:14:09.236Z,13.90
2023-02-13T10:16:42.029Z,13.90
2023-02-13T10:19:36.535Z,14.80
2023-02-13T10:22:36.147Z,14.10
2023-02-13T10:25:17.956Z,14.30
2023-02-13T10:27:49.129Z,14.30
2023-02-13T10:30:21.876Z,14.10
2023-02-13T10:33:18.641Z,13.90
2023-02-13T10:36:22.599Z,14.00
2023-02-13T10:38:57.103Z,14.10
2023-02-13T10:41:44.483Z,16.60
2023-02-13T10:44:27.664Z,14.20
2023-02-13T10:47:21.854Z,14.20
2023-02-13T10:50:15.292Z,14.20
2023-02-13T10:53:06.425Z,14.10
2023-02-13T10:55:46.065Z,14.20
2023-02-13T10:58:31.308Z,14.20
2023-02-13T11:01:32.329Z,14.90
2023-02-13T11:04:13.789Z,14.10
2023-02-13T11:06:57.792Z,14.10
2023-02-13T11:09:25.294Z,14.10
2023-02-13T11:11:52.767Z,14.20
2023-02-13T11:14:22.265Z,14.20
2023-02-13T11:16:52.033Z,14.10
2023-02-13T11:19:27.749Z,14.80
2023-02-13T11:21:59.040Z,14.30
2023-02-13T11:24:27.849Z,14.30
2023-02-13T11:27:00.662Z,14.20
2023-02-13T11:29:34.541Z,15.10
2023-02-13T11:32:23.544Z,14.30
2023-02-13T11:34:51.335Z,14.20
2023-02-13T11:37:21.130Z,14.20
2023-02-13T11:39:51.459Z,14.30
2023-02-13T11:42:21.043Z,14.40
2023-02-13T11:44:55.511Z,14.50
2023-02-13T11:47:36.188Z,14.60
2023-02-13T11:50:04.687Z,14.60
2023-02-13T11:52:33.643Z,14.50
2023-02-13T11:55:23.852Z,14.60
2023-02-13T11:57:59.379Z,14.80
2023-02-13T12:00:37.227Z,14.80
2023-02-13T12:03:29.495Z,14.80
2023-02-13T12:06:16.413Z,14.90
2023-02-13T12:08:47.323Z,14.90
2023-02-13T12:11:36.736Z,15.30
2023-02-13T12:14:03.488Z,15.60
2023-02-13T12:16:36.571Z,14.90
2023-02-13T12:19:12.031Z,14.90
2023-02-13T12:21:53.513Z,15.00
2023-02-13T12:24:44.441Z,15.20
2023-02-13T12:27:28.576Z,15.20
2023-02-13T12:30:28.484Z,15.30
2023-02-13T12:33:16.558Z,15.40
2023-02-13T12:35:57.264Z,15.50
2023-02-13T12:38:50.877Z,15.60
2023-02-13T12:41:36.227Z,15.60
2023-02-13T12:44:08.084Z,15.70
2023-02-13T12:46:54.841Z,15.60
2023-02-13T12:49:24.264Z,15.60
2023-02-13T12:52:12.279Z,15.80
2023-02-13T12:55:01.312Z,15.90
2023-02-13T12:57:49.692Z,15.90
2023-02-13T13:00:43.728Z,16.10
2023-02-13T13:03:22.552Z,16.20
2023-02-13T13:06:03.641Z,16.20
2023-02-13T13:08:46.252Z,16.40
2023-02-13T13:11:36.842Z,16.40
2023-02-13T13:14:07.573Z,16.50
2023-02-13T13:16:52.685Z,16.60
2023-02-13T13:19:25.254Z,16.60
2023-02-13T13:22:11.105Z,16.70
2023-02-13T13:24:42.374Z,16.60
2023-02-13T13:27:28.504Z,16.70
2023-02-13T13:30:15.056Z,16.80
2023-02-13T13:32:43.667Z,16.90
2023-02-13T13:35:20.220Z,17.00
2023-02-13T13:38:07.883Z,17.10
2023-02-13T13:40:37.478Z,17.10
2023-02-13T13:43:11.445Z,17.20
2023-02-13T13:46:03.695Z,17.20
2023-02-13T13:48:49.150Z,17.20
2023-02-13T13:51:17.744Z,17.10
2023-02-13T13:54:02.963Z,17.00
2023-02-13T13:56:56.735Z,17.50
2023-02-13T13:59:38.815Z,17.40
2023-02-13T14:02:17.834Z,17.40
2023-02-13T14:05:09.953Z,17.30
2023-02-13T14:07:41.339Z,17.40
2023-02-13T14:10:33.837Z,17.60
2023-02-13T14:13:03.079Z,17.40
2023-02-13T14:15:44.500Z,17.50
2023-02-13T14:18:11.907Z,17.60
2023-02-13T14:20:52.034Z,17.60
2023-02-13T14:23:33.060Z,17.70
2023-02-13T14:26:19.199Z,17.70
2023-02-13T14:28:49.013Z,17.80
2023-02-13T14:31:24.668Z,18.60
2023-02-13T14:34:19.415Z,18.10
2023-02-13T14:36:59.459Z,18.10
2023-02-13T14:39:33.496Z,18.50
2023-02-13T14:42:03.033Z,18.00
2023-02-13T14:44:35.884Z,18.10
2023-02-13T14:47:13.383Z,18.10
2023-02-13T14:49:42.510Z,18.00
2023-02-13T14:52:22.767Z,18.00
2023-02-13T14:54:54.220Z,17.90
2023-02-13T14:57:48.987Z,17.80
2023-02-13T15:00:38.933Z,17.80
2023-02-13T15:03:24.488Z,17.70
2023-02-13T15:05:54.355Z,18.10
2023-02-13T15:08:25.531Z,18.20
2023-02-13T15:10:55.387Z,17.50
2023-02-13T15:13:22.389Z,17.40
2023-02-13T15:15:59.413Z,18.10
2023-02-13T15:18:28.952Z,17.20
2023-02-13T15:20:58.656Z,18.00
2023-02-13T15:23:31.188Z,17.30
2023-02-13T15:26:08.110Z,17.30
2023-02-13T15:28:36.230Z,17.10
2023-02-13T15:31:19.334Z,17.20
2023-02-13T15:33:48.656Z,17.80
2023-02-13T15:36:21.219Z,17.00
2023-02-13T15:38:48.283Z,17.00
2023-02-13T15:41:24.434Z,16.90
2023-02-13T15:43:57.750Z,16.80
2023-02-13T15:46:33.607Z,16.70
2023-02-13T15:49:17.687Z,17.00
2023-02-13T15:51:45.346Z,16.30
2023-02-13T15:54:28.097Z,16.20
2023-02-13T15:56:58.557Z,15.90
2023-02-13T15:59:30.938Z,15.80
2023-02-13T16:02:00.075Z,15.50
2023-02-13T16:04:27.926Z,15.50
2023-02-13T16:06:56.413Z,15.30
2023-02-13T16:09:31.360Z,15.40
2023-02-13T16:12:17.960Z,15.30
2023-02-13T16:14:59.982Z,15.10
2023-02-13T16:17:33.247Z,15.00
2023-02-13T16:20:13.896Z,15.00
2023-02-13T16:22:48.218Z,14.90
2023-02-13T16:25:39.496Z,15.40
2023-02-13T16:28:23.220Z,14.80
2023-02-13T16:30:59.275Z,14.60
2023-02-13T16:33:41.999Z,12.70
2023-02-13T16:36:11.472Z,14.40
2023-02-13T16:38:40.971Z,14.30
2023-02-13T16:41:19.987Z,14.30
2023-02-13T16:43:47.568Z,14.30
2023-02-13T16:46:20.335Z,13.90
2023-02-13T16:49:00.951Z,14.00
2023-02-13T16:51:36.549Z,14.10
2023-02-13T16:54:11.230Z,13.80
2023-02-13T16:56:40.515Z,13.80
2023-02-13T16:59:42.360Z,12.90
2023-02-13T17:02:13.028Z,13.60
2023-02-13T17:04:39.918Z,13.50
2023-02-13T17:07:12.788Z,13.40
2023-02-13T17:09:39.486Z,13.20
2023-02-13T17:12:14.550Z,13.10
2023-02-13T17:14:41.694Z,13.60
2023-02-13T17:17:21.007Z,13.40
2023-02-13T17:19:49.061Z,12.90
2023-02-13T17:22:23.603Z,13.50
2023-02-13T17:24:50.348Z,12.80
2023-02-13T17:27:17.223Z,12.70
2023-02-13T17:29:44.130Z,12.70
2023-02-13T17:32:16.931Z,12.50
2023-02-13T17:34:46.493Z,12.50
2023-02-13T17:37:25.940Z,12.40
2023-02-13T17:39:53.761Z,12.50
2023-02-13T17:42:24.747Z,12.40
2023-02-13T17:44:52.499Z,12.30
2023-02-13T17:47:20.072Z,12.30
2023-02-13T17:49:47.807Z,12.10
2023-02-13T17:52:24.554Z,12.10
2023-02-13T17:54:51.375Z,12.10
2023-02-13T17:57:19.193Z,12.00
2023-02-13T17:59:46.728Z,11.90
2023-02-13T18:02:16.652Z,11.90
2023-02-13T18:04:43.886Z,11.90
2023-02-13T18:07:15.930Z,12.30
2023-02-13T18:09:43.112Z,11.90
2023-02-13T18:12:22.318Z,11.80
2023-02-13T18:14:50.156Z,11.70
2023-02-13T18:17:18.739Z,11.60
2023-02-13T18:19:45.552Z,11.60
2023-02-13T18:22:12.760Z,11.60
2023-02-13T18:24:41.993Z,11.60
2023-02-13T18:27:11.245Z,11.50
2023-02-13T18:29:38.410Z,11.40
2023-02-13T18:32:10.223Z,11.40
2023-02-13T18:34:38.598Z,11.20
2023-02-13T18:37:07.153Z,11.20
2023-02-13T18:39:34.175Z,11.10
2023-02-13T18:42:01.357Z,11.20
2023-02-13T18:44:29.099Z,11.00
2023-02-13T18:46:56.391Z,11.00
2023-02-13T18:49:23.371Z,11.00
2023-02-13T18:51:50.653Z,11.10
2023-02-13T18:54:18.042Z,10.90
2023-02-13T18:56:45.907Z,10.90
2023-02-13T18:59:13.031Z,10.90
2023-02-13T19:01:39.917Z,10.80
2023-02-13T19:04:07.016Z,11.50
2023-02-13T19:06:33.946Z,10.70
2023-02-13T19:09:00.895Z,11.40
2023-02-13T19:11:27.911Z,10.60
2023-02-13T19:13:56.379Z,10.90
2023-02-13T19:16:23.770Z,10.70
2023-02-13T19:18:53.707Z,10.70
2023-02-13T19:21:22.537Z,10.60
2023-02-13T19:23:50.392Z,10.70
2023-02-13T19:26:20.080Z,10.40
2023-02-13T19:28:47.451Z,10.50
2023-02-13T19:31:17.646Z,10.50
2023-02-13T19:33:45.192Z,10.40
2023-02-13T19:36:15.327Z,10.50
2023-02-13T19:38:43.587Z,10.30
2023-02-13T19:41:17.697Z,10.40
2023-02-13T19:43:50.714Z,10.40
2023-02-13T19:46:29.392Z,10.30
2023-02-13T19:48:56.786Z,10.40
2023-02-13T19:51:27.637Z,10.30
2023-02-13T19:53:59.703Z,10.20
2023-02-13T19:56:27.554Z,10.20
2023-02-13T19:58:54.488Z,10.10
2023-02-13T20:01:23.188Z,11.00
2023-02-13T20:03:50.553Z,10.00
2023-02-13T20:06:21.048Z,10.00
2023-02-13T20:08:48.152Z,9.90
2023-02-13T20:11:16.663Z,9.90
2023-02-13T20:13:43.611Z,9.90
2023-02-13T20:16:13.949Z,9.80
2023-02-13T20:18:41.685Z,10.00
2023-02-13T20:21:10.186Z,9.80
2023-02-13T20:23:37.753Z,9.90
2023-02-13T20:26:10.921Z,9.80
2023-02-13T20:28:38.017Z,9.80
2023-02-13T20:31:21.540Z,9.80
2023-02-13T20:33:50.361Z,9.80
2023-02-13T20:36:20.073Z,9.70
2023-02-13T20:38:47.134Z,9.70
2023-02-13T20:41:19.374Z,9.60
2023-02-13T20:43:46.747Z,9.40
2023-02-13T20:46:16.123Z,9.50
2023-02-13T20:48:45.431Z,9.50
2023-02-13T20:51:14.811Z,10.00
2023-02-13T20:53:42.697Z,9.50
2023-02-13T20:56:16.908Z,9.40
2023-02-13T20:58:45.040Z,9.50
2023-02-13T21:01:21.854Z,9.40
2023-02-13T21:03:53.622Z,9.40
2023-02-13T21:06:26.649Z,10.00
2023-02-13T21:08:54.466Z,9.20
2023-02-13T21:11:22.317Z,9.30
2023-02-13T21:13:49.412Z,9.20
2023-02-13T21:16:22.827Z,9.20
2023-02-13T21:18:51.684Z,9.20
2023-02-13T21:21:19.937Z,9.30
2023-02-13T21:23:47.554Z,9.20
2023-02-13T21:26:17.265Z,9.00
2023-02-13T21:28:46.494Z,9.10
2023-02-13T21:31:15.044Z,9.00
2023-02-13T21:33:41.885Z,9.00
2023-02-13T21:36:10.351Z,9.00
2023-02-13T21:38:37.892Z,9.00
2023-02-13T21:41:06.883Z,8.90
2023-02-13T21:43:37.575Z,8.90
2023-02-13T21:46:13.031Z,8.80
2023-02-13T21:48:40.522Z,8.80
2023-02-13T21:51:12.760Z,8.90
2023-02-13T21:53:39.832Z,8.90
2023-02-13T21:56:10.846Z,8.90
2023-02-13T21:58:39.496Z,9.00
2023-02-13T22:01:26.449Z,8.90
2023-02-13T22:04:00.777Z,8.90
2023-02-13T22:06:30.273Z,8.80
2023-02-13T22:08:59.665Z,8.80
2023-02-13T22:11:26.829Z,8.80
2023-02-13T22:14:01.581Z,8.80
2023-02-13T22:16:29.970Z,8.70
2023-02-13T22:18:57.033Z,8.70
2023-02-13T22:21:25.954Z,8.60
2023-02-13T22:23:52.781Z,8.70
2023-02-13T22:26:22.570Z,8.60
2023-02-13T22:28:50.384Z,8.60
2023-02-13T22:31:18.365Z,8.60
2023-02-13T22:33:52.343Z,8.60
2023-02-13T22:36:25.755Z,8.50
2023-02-13T22:38:53.167Z,8.60
2023-02-13T22:41:22.472Z,8.50
2023-02-13T22:43:49.654Z,8.50
2023-02-13T22:46:19.563Z,8.50
2023-02-13T22:48:46.805Z,8.50
2023-02-13T22:51:16.694Z,8.40
2023-02-13T22:53:43.788Z,8.40
2023-02-13T22:56:11.864Z,8.30
2023-02-13T22:58:39.206Z,8.20
2023-02-13T23:01:18.707Z,8.90
2023-02-13T23:03:46.099Z,8.20
2023-02-13T23:06:14.265Z,8.10
2023-02-13T23:08:41.448Z,8.00
2023-02-13T23:11:32.345Z,8.00
2023-02-13T23:14:00.086Z,8.10
2023-02-13T23:16:27.396Z,8.00
2023-02-13T23:18:57.642Z,7.90
2023-02-13T23:21:25.401Z,8.00
2023-02-13T23:23:52.402Z,8.00
2023-02-13T23:26:19.699Z,8.00
2023-02-13T23:28:46.447Z,8.00
2023-02-13T23:31:13.245Z,8.00
2023-02-13T23:33:40.032Z,7.90
2023-02-13T23:36:07.318Z,7.90
2023-02-13T23:38:34.084Z,7.90
2023-02-13T23:41:08.599Z,7.80
2023-02-13T23:43:35.463Z,7.80
2023-02-13T23:46:06.726Z,7.70
2023-02-13T23:48:34.250Z,7.70
2023-02-13T23:51:01.726Z,7.70
2023-02-13T23:53:28.783Z,7.60
2023-02-13T23:55:56.000Z,7.60
2023-02-13T23:58:22.977Z,7.60
